createdAt,value
2022-10-26T00:00:47.484Z,3.70
2022-10-26T00:03:15.171Z,3.15
2022-10-26T00:05:42.689Z,2.97
2022-10-26T00:08:10.015Z,3.42
2022-10-26T00:10:38.083Z,4.20
2022-10-26T00:13:06.339Z,3.45
2022-10-26T00:15:33.731Z,3.22
2022-10-26T00:18:01.024Z,3.83
2022-10-26T00:20:28.371Z,3.60
2022-10-26T00:22:55.754Z,2.53
2022-10-26T00:25:23.074Z,3.22
2022-10-26T00:27:50.489Z,3.08
2022-10-26T00:30:18.235Z,2.75
2022-10-26T00:32:45.490Z,2.90
2022-10-26T00:35:22.917Z,2.40
2022-10-26T00:37:56.788Z,2.63
2022-10-26T00:40:27.960Z,3.42
2022-10-26T00:42:55.263Z,3.10
2022-10-26T00:45:27.205Z,2.47
2022-10-26T00:48:00.755Z,3.40
2022-10-26T00:50:38.197Z,3.22
2022-10-26T00:53:08.128Z,2.72
2022-10-26T00:55:40.885Z,2.40
2022-10-26T01:00:35.605Z,2.65
2022-10-26T01:03:07.211Z,2.75
2022-10-26T01:05:35.694Z,3.05
2022-10-26T01:08:03.704Z,3.50
2022-10-26T01:10:31.415Z,4.20
2022-10-26T01:12:59.427Z,2.65
2022-10-26T01:15:35.609Z,3.60
2022-10-26T01:18:09.569Z,3.33
2022-10-26T01:20:52.788Z,2.22
2022-10-26T01:23:39.767Z,3.13
2022-10-26T01:26:19.566Z,4.57
2022-10-26T01:28:50.184Z,2.88
2022-10-26T01:31:21.842Z,2.53
2022-10-26T01:33:57.623Z,2.58
2022-10-26T01:36:34.811Z,2.33
2022-10-26T01:39:04.298Z,2.60
2022-10-26T01:41:31.904Z,3.22
2022-10-26T01:44:05.114Z,2.92
2022-10-26T01:46:36.084Z,2.58
2022-10-26T01:49:07.629Z,3.00
2022-10-26T01:51:35.681Z,2.47
2022-10-26T01:54:03.253Z,2.53
2022-10-26T01:56:32.922Z,3.22
2022-10-26T01:59:00.314Z,2.85
2022-10-26T02:01:42.958Z,2.30
2022-10-26T02:04:33.418Z,2.40
2022-10-26T02:07:01.226Z,2.92
2022-10-26T02:09:28.669Z,2.70
2022-10-26T02:11:56.687Z,3.70
2022-10-26T02:14:30.752Z,2.83
2022-10-26T02:16:59.157Z,3.67
2022-10-26T02:19:26.605Z,2.55
2022-10-26T02:21:56.212Z,3.67
2022-10-26T02:24:24.326Z,2.90
2022-10-26T02:26:53.878Z,3.33
2022-10-26T02:29:21.707Z,3.08
2022-10-26T02:31:49.523Z,2.65
2022-10-26T02:34:19.579Z,3.20
2022-10-26T02:36:48.438Z,3.45
2022-10-26T02:39:17.317Z,3.05
2022-10-26T02:41:45.056Z,2.95
2022-10-26T02:44:27.381Z,2.78
2022-10-26T02:46:55.871Z,4.03
2022-10-26T02:49:23.316Z,3.63
2022-10-26T02:52:10.164Z,2.35
2022-10-26T02:54:47.141Z,3.95
2022-10-26T02:57:40.602Z,3.13
2022-10-26T03:02:36.579Z,2.70
2022-10-26T03:05:22.148Z,3.78
2022-10-26T03:07:49.722Z,3.85
2022-10-26T03:10:17.229Z,2.70
2022-10-26T03:12:44.762Z,3.20
2022-10-26T03:15:12.253Z,2.90
2022-10-26T03:17:39.984Z,3.45
2022-10-26T03:20:07.841Z,3.72
2022-10-26T03:22:35.251Z,3.35
2022-10-26T03:25:03.029Z,2.88
2022-10-26T03:27:30.737Z,2.72
2022-10-26T03:29:58.502Z,3.15
2022-10-26T03:32:26.206Z,3.15
2022-10-26T03:34:53.711Z,3.08
2022-10-26T03:37:21.347Z,3.00
2022-10-26T03:39:48.833Z,3.28
2022-10-26T03:42:16.331Z,2.72
2022-10-26T03:44:44.039Z,2.83
2022-10-26T03:47:11.460Z,2.95
2022-10-26T03:49:39.595Z,3.33
2022-10-26T03:52:07.000Z,2.45
2022-10-26T03:54:34.507Z,2.63
2022-10-26T03:57:01.985Z,3.17
2022-10-26T03:59:29.612Z,3.22
2022-10-26T04:01:58.360Z,2.70
2022-10-26T04:04:26.243Z,3.35
2022-10-26T04:06:53.847Z,3.50
2022-10-26T04:09:21.333Z,3.80
2022-10-26T04:11:49.453Z,2.58
2022-10-26T04:14:17.059Z,3.78
2022-10-26T04:16:44.488Z,2.88
2022-10-26T04:19:11.895Z,2.75
2022-10-26T04:21:40.501Z,2.92
2022-10-26T04:24:07.953Z,3.00
2022-10-26T04:26:35.476Z,2.38
2022-10-26T04:29:07.533Z,2.47
2022-10-26T04:31:35.030Z,3.58
2022-10-26T04:34:02.559Z,3.15
2022-10-26T04:36:31.078Z,3.05
2022-10-26T04:38:58.841Z,2.88
2022-10-26T04:41:26.499Z,3.40
2022-10-26T04:43:53.923Z,2.53
2022-10-26T04:46:21.331Z,2.67
2022-10-26T04:48:49.365Z,2.08
2022-10-26T04:51:16.859Z,1.95
2022-10-26T04:53:44.288Z,2.35
2022-10-26T04:56:11.732Z,3.00
2022-10-26T04:58:39.231Z,2.17
2022-10-26T05:01:06.865Z,2.85
2022-10-26T05:03:34.422Z,2.28
2022-10-26T05:06:02.018Z,2.00
2022-10-26T05:08:30.684Z,2.67
2022-10-26T05:10:58.374Z,1.88
2022-10-26T05:15:55.014Z,2.47
2022-10-26T05:18:23.866Z,3.10
2022-10-26T05:20:55.788Z,2.42
2022-10-26T05:23:23.934Z,2.57
2022-10-26T05:25:51.482Z,2.38
2022-10-26T05:28:19.468Z,3.10
2022-10-26T05:30:47.298Z,3.08
2022-10-26T05:33:14.957Z,2.08
2022-10-26T05:35:42.662Z,2.10
2022-10-26T05:38:17.509Z,2.70
2022-10-26T05:40:49.407Z,2.58
2022-10-26T05:43:17.197Z,2.53
2022-10-26T05:45:44.897Z,1.38
2022-10-26T05:48:12.348Z,1.60
2022-10-26T05:50:39.812Z,2.33
2022-10-26T05:53:07.242Z,2.60
2022-10-26T05:55:34.977Z,1.67
2022-10-26T05:58:02.593Z,2.20
2022-10-26T06:00:30.467Z,1.77
2022-10-26T06:03:33.440Z,2.28
2022-10-26T06:06:02.769Z,1.90
2022-10-26T06:08:32.924Z,2.22
2022-10-26T06:11:00.646Z,2.00
2022-10-26T06:13:28.367Z,2.28
2022-10-26T06:16:13.924Z,2.10
2022-10-26T06:18:54.655Z,2.00
2022-10-26T06:21:58.224Z,1.67
2022-10-26T06:24:47.337Z,2.75
2022-10-26T06:27:20.762Z,2.25
2022-10-26T06:29:57.521Z,2.40
2022-10-26T06:32:25.674Z,1.98
2022-10-26T06:34:57.308Z,2.47
2022-10-26T06:37:25.356Z,2.00
2022-10-26T06:39:54.786Z,1.42
2022-10-26T06:42:22.616Z,1.92
2022-10-26T06:44:50.257Z,1.95
2022-10-26T06:47:21.182Z,2.63
2022-10-26T06:49:51.213Z,1.70
2022-10-26T06:52:18.604Z,2.40
2022-10-26T06:54:56.301Z,2.45
2022-10-26T06:57:24.857Z,2.13
2022-10-26T06:59:57.694Z,1.63
2022-10-26T07:05:04.937Z,1.40
2022-10-26T07:07:32.954Z,2.25
2022-10-26T07:12:47.426Z,1.48
2022-10-26T07:24:02.447Z,1.85
2022-10-26T07:26:30.335Z,1.83
2022-10-26T07:31:34.950Z,2.78
2022-10-26T07:34:05.796Z,1.83
2022-10-26T07:36:33.675Z,2.45
2022-10-26T07:39:09.090Z,1.92
2022-10-26T07:41:37.092Z,1.67
2022-10-26T07:46:47.477Z,1.73
2022-10-26T07:49:17.652Z,1.70
2022-10-26T07:51:47.065Z,1.50
2022-10-26T07:54:14.501Z,1.80
2022-10-26T07:56:41.932Z,1.65
2022-10-26T07:59:09.412Z,2.00
2022-10-26T08:01:37.607Z,2.10
2022-10-26T08:04:05.131Z,2.13
2022-10-26T08:06:32.608Z,1.50
2022-10-26T08:09:00.137Z,1.60
2022-10-26T08:11:27.697Z,2.00
2022-10-26T08:13:55.761Z,1.45
2022-10-26T08:16:23.561Z,1.70
2022-10-26T08:18:51.976Z,2.05
2022-10-26T08:21:35.766Z,1.98
2022-10-26T08:24:07.377Z,1.27
2022-10-26T08:26:34.901Z,1.63
2022-10-26T08:29:02.655Z,1.90
2022-10-26T08:31:30.400Z,1.27
2022-10-26T08:33:57.906Z,1.90
2022-10-26T08:36:26.350Z,1.92
2022-10-26T08:38:53.864Z,1.80
2022-10-26T08:41:31.785Z,2.10
2022-10-26T08:44:02.741Z,1.75
2022-10-26T08:46:33.926Z,1.58
2022-10-26T08:49:03.781Z,1.92
2022-10-26T08:51:36.170Z,2.45
2022-10-26T08:54:15.822Z,1.27
2022-10-26T08:56:50.707Z,2.35
2022-10-26T08:59:28.964Z,1.60
2022-10-26T09:01:56.924Z,2.00
2022-10-26T09:04:28.012Z,1.80
2022-10-26T09:07:04.670Z,1.42
2022-10-26T09:09:52.262Z,2.03
2022-10-26T09:12:25.610Z,1.15
2022-10-26T09:14:56.086Z,2.38
2022-10-26T09:17:29.815Z,1.85
2022-10-26T09:20:20.899Z,1.65
2022-10-26T09:22:51.665Z,1.85
2022-10-26T09:25:19.210Z,2.60
2022-10-26T09:27:49.191Z,1.95
2022-10-26T09:30:18.781Z,2.08
2022-10-26T09:32:47.929Z,2.35
2022-10-26T09:35:21.369Z,1.70
2022-10-26T09:38:18.121Z,2.63
2022-10-26T09:41:04.093Z,2.15
2022-10-26T09:43:31.536Z,2.38
2022-10-26T09:45:59.157Z,1.42
2022-10-26T09:48:46.779Z,1.90
2022-10-26T09:51:16.190Z,1.80
2022-10-26T09:53:43.651Z,1.73
2022-10-26T09:56:12.173Z,1.63
2022-10-26T09:59:02.987Z,2.03
2022-10-26T10:01:38.150Z,2.45
2022-10-26T10:04:21.277Z,2.40
2022-10-26T10:06:50.036Z,1.88
2022-10-26T10:09:18.770Z,2.17
2022-10-26T10:11:55.440Z,1.75
2022-10-26T10:14:24.042Z,2.22
2022-10-26T10:16:54.285Z,1.75
2022-10-26T10:19:40.082Z,1.80
2022-10-26T10:22:13.091Z,2.00
2022-10-26T10:24:44.826Z,1.77
2022-10-26T10:27:18.108Z,1.52
2022-10-26T10:29:46.800Z,2.75
2022-10-26T10:32:18.806Z,2.28
2022-10-26T10:34:46.257Z,1.40
2022-10-26T10:37:33.853Z,2.25
2022-10-26T10:40:07.704Z,2.38
2022-10-26T10:42:36.704Z,1.85
2022-10-26T10:45:04.736Z,2.25
2022-10-26T10:47:36.393Z,1.65
2022-10-26T10:50:03.977Z,1.45
2022-10-26T10:52:35.605Z,2.58
2022-10-26T10:55:12.061Z,1.33
2022-10-26T10:58:05.834Z,1.70
2022-10-26T11:00:37.045Z,2.30
2022-10-26T11:03:07.746Z,2.13
2022-10-26T11:05:44.612Z,2.03
2022-10-26T11:08:19.184Z,2.03
2022-10-26T11:10:56.440Z,1.90
2022-10-26T11:13:47.042Z,2.22
2022-10-26T11:16:18.873Z,2.60
2022-10-26T11:19:15.553Z,1.83
2022-10-26T11:21:45.296Z,2.60
2022-10-26T11:24:31.096Z,2.00
2022-10-26T11:27:01.040Z,2.10
2022-10-26T11:29:41.671Z,2.70
2022-10-26T11:32:18.875Z,2.25
2022-10-26T11:34:46.334Z,3.70
2022-10-26T11:37:33.560Z,3.17
2022-10-26T11:40:14.021Z,2.28
2022-10-26T11:42:47.357Z,1.95
2022-10-26T11:45:24.967Z,2.47
2022-10-26T11:48:03.456Z,2.40
2022-10-26T11:50:35.211Z,2.40
2022-10-26T11:53:16.084Z,2.67
2022-10-26T11:55:44.474Z,3.03
2022-10-26T11:58:12.715Z,2.40
2022-10-26T12:00:46.110Z,2.45
2022-10-26T12:03:16.031Z,2.95
2022-10-26T12:05:46.454Z,2.10
2022-10-26T12:08:21.896Z,2.22
2022-10-26T12:10:51.446Z,2.03
2022-10-26T12:13:57.469Z,2.47
2022-10-26T12:16:42.909Z,2.10
2022-10-26T12:19:19.308Z,2.65
2022-10-26T12:21:48.983Z,3.05
2022-10-26T12:24:30.179Z,3.08
2022-10-26T12:27:01.315Z,2.42
2022-10-26T12:29:46.005Z,2.10
2022-10-26T12:32:31.964Z,2.28
2022-10-26T12:35:00.733Z,3.13
2022-10-26T12:37:33.073Z,2.50
2022-10-26T12:40:18.835Z,2.03
2022-10-26T12:42:46.405Z,3.17
2022-10-26T12:45:23.519Z,3.10
2022-10-26T12:47:51.289Z,2.30
2022-10-26T12:50:25.526Z,2.00
2022-10-26T12:53:12.070Z,3.20
2022-10-26T12:55:49.268Z,2.10
2022-10-26T12:58:19.795Z,4.20
2022-10-26T13:00:52.634Z,2.72
2022-10-26T13:03:20.125Z,2.58
2022-10-26T13:06:03.225Z,2.25
2022-10-26T13:08:39.365Z,2.63
2022-10-26T13:11:08.420Z,2.97
2022-10-26T13:13:36.881Z,3.35
2022-10-26T13:16:04.837Z,2.63
2022-10-26T13:18:32.399Z,2.60
2022-10-26T13:21:00.805Z,2.70
2022-10-26T13:23:29.625Z,3.13
2022-10-26T13:26:04.563Z,2.97
2022-10-26T13:28:34.640Z,2.45
2022-10-26T13:31:03.420Z,2.40
2022-10-26T13:33:48.576Z,2.35
2022-10-26T13:36:19.962Z,2.17
2022-10-26T13:39:12.746Z,2.30
2022-10-26T13:56:01.519Z,2.10
2022-10-26T14:01:13.953Z,2.20
2022-10-26T14:03:50.655Z,2.40
2022-10-26T14:11:50.922Z,2.80
2022-10-26T14:14:30.534Z,2.78
2022-10-26T14:34:12.952Z,2.72
2022-10-26T14:39:29.119Z,2.47
2022-10-26T14:44:41.495Z,2.88
2022-10-26T14:52:32.164Z,1.95
2022-10-26T14:55:02.454Z,2.10
2022-10-26T14:57:31.865Z,2.17
2022-10-26T15:00:05.972Z,2.72
2022-10-26T15:02:33.605Z,3.50
2022-10-26T15:05:02.438Z,2.90
2022-10-26T15:07:37.653Z,2.53
2022-10-26T15:10:06.133Z,2.33
2022-10-26T15:12:35.507Z,3.00
2022-10-26T15:18:05.926Z,2.47
2022-10-26T15:20:33.456Z,2.67
2022-10-26T15:23:02.466Z,2.35
2022-10-26T15:25:34.593Z,3.08
2022-10-26T15:28:12.391Z,3.47
2022-10-26T15:30:40.011Z,2.40
2022-10-26T15:33:41.459Z,2.40
2022-10-26T15:36:09.093Z,2.45
2022-10-26T15:38:36.757Z,2.58
2022-10-26T15:41:04.973Z,2.50
2022-10-26T15:43:32.645Z,2.85
2022-10-26T15:46:00.363Z,2.38
2022-10-26T15:48:29.783Z,2.90
2022-10-26T15:59:46.044Z,2.50
2022-10-26T16:02:16.462Z,3.05
2022-10-26T16:24:13.400Z,3.35
2022-10-26T16:26:40.987Z,3.03
2022-10-26T16:29:08.464Z,2.75
2022-10-26T16:31:45.339Z,2.35
2022-10-26T16:34:13.219Z,3.13
2022-10-26T16:36:50.783Z,2.65
2022-10-26T16:39:25.162Z,3.10
2022-10-26T16:44:31.638Z,3.10
2022-10-26T16:46:59.189Z,2.20
2022-10-26T16:49:26.828Z,1.88
2022-10-26T16:51:54.609Z,2.47
2022-10-26T17:00:11.559Z,2.75
2022-10-26T17:02:39.443Z,3.05
2022-10-26T17:07:56.510Z,2.65
2022-10-26T17:24:42.960Z,4.40
2022-10-26T17:29:40.609Z,3.20
2022-10-26T17:32:08.234Z,3.65
2022-10-26T17:34:35.749Z,3.33
2022-10-26T17:37:03.471Z,3.83
2022-10-26T17:39:31.189Z,3.35
2022-10-26T17:41:58.876Z,4.72
2022-10-26T17:44:26.509Z,3.15
2022-10-26T17:46:54.278Z,3.13
2022-10-26T17:57:43.549Z,3.33
2022-10-26T18:02:53.202Z,3.03
2022-10-26T18:08:03.344Z,3.28
2022-10-26T18:10:37.813Z,2.92
2022-10-26T18:13:05.924Z,3.15
2022-10-26T18:15:38.154Z,3.45
2022-10-26T18:18:05.715Z,3.60
2022-10-26T18:20:34.232Z,3.10
2022-10-26T18:23:01.864Z,3.38
2022-10-26T18:25:29.628Z,2.97
2022-10-26T18:27:57.134Z,2.92
2022-10-26T18:30:25.507Z,4.18
2022-10-26T18:32:53.561Z,3.15
2022-10-26T18:35:21.324Z,3.08
2022-10-26T18:37:49.132Z,2.92
2022-10-26T18:40:16.863Z,3.60
2022-10-26T18:42:44.304Z,3.15
2022-10-26T18:45:11.919Z,2.72
2022-10-26T18:47:39.383Z,3.78
2022-10-26T18:50:07.033Z,3.40
2022-10-26T18:52:34.460Z,3.15
2022-10-26T18:55:01.878Z,3.90
2022-10-26T18:57:29.673Z,4.00
2022-10-26T18:59:57.164Z,4.75
2022-10-26T19:02:24.628Z,2.47
2022-10-26T19:04:54.445Z,2.90
2022-10-26T19:07:22.413Z,2.63
2022-10-26T19:09:49.857Z,1.55
2022-10-26T19:12:17.305Z,1.27
2022-10-26T19:14:44.738Z,0.70
2022-10-26T19:17:12.154Z,0.60
2022-10-26T19:49:26.345Z,0.10
2022-10-26T20:05:56.212Z,0.10
2022-10-26T20:13:58.146Z,0.10
2022-10-26T20:16:50.714Z,0.10
2022-10-26T20:24:51.505Z,0.10
2022-10-26T20:27:18.979Z,0.17
2022-10-26T20:29:46.651Z,0.28
2022-10-26T20:32:15.889Z,0.10
2022-10-26T20:34:45.521Z,0.30
2022-10-26T20:37:14.180Z,0.20
2022-10-26T20:39:41.891Z,0.25
2022-10-26T20:42:22.728Z,0.10
2022-10-26T20:44:53.494Z,0.10
2022-10-26T20:55:39.857Z,0.10
2022-10-26T20:58:12.285Z,0.10
2022-10-26T21:06:19.686Z,0.10
2022-10-26T21:08:50.629Z,0.15
2022-10-26T21:11:21.682Z,0.20
2022-10-26T21:13:51.997Z,0.10
2022-10-26T21:16:19.543Z,0.15
2022-10-26T21:18:49.067Z,0.10
2022-10-26T21:21:16.762Z,0.15
2022-10-26T21:23:44.272Z,0.10
2022-10-26T21:26:12.129Z,0.00
2022-10-26T21:28:46.298Z,0.10
2022-10-26T21:39:11.464Z,0.20
2022-10-26T21:47:16.568Z,0.10
2022-10-26T21:49:44.119Z,0.20
2022-10-26T21:57:17.213Z,0.20
2022-10-26T21:59:44.666Z,0.15
2022-10-26T22:02:12.220Z,0.47
2022-10-26T22:10:13.976Z,0.30
2022-10-26T22:15:41.051Z,0.20
2022-10-26T22:18:33.241Z,0.20
2022-10-26T22:21:11.038Z,0.20
2022-10-26T22:26:52.369Z,0.35
2022-10-26T22:29:20.013Z,0.10
2022-10-26T22:40:10.229Z,0.30
2022-10-26T22:57:00.070Z,0.70
2022-10-26T22:59:27.979Z,0.40
2022-10-26T23:01:55.558Z,0.25
2022-10-26T23:04:23.161Z,0.35
2022-10-26T23:15:16.601Z,0.28
2022-10-26T23:20:25.936Z,0.20
2022-10-26T23:25:23.653Z,0.20
2022-10-26T23:27:51.487Z,0.30
2022-10-26T23:30:26.629Z,0.22
2022-10-26T23:35:53.608Z,0.25
2022-10-26T23:44:02.369Z,0.50
2022-10-26T23:49:43.479Z,0.40
2022-10-26T23:57:55.556Z,0.95
